createdAt,value
2022-11-02T00:00:35.129Z,66.19
2022-11-02T00:03:22.818Z,66.19
2022-11-02T00:05:50.013Z,66.68
2022-11-02T00:08:17.274Z,66.71
2022-11-02T00:10:44.684Z,68.20
2022-11-02T00:13:12.523Z,68.27
2022-11-02T00:15:39.642Z,67.86
2022-11-02T00:18:11.612Z,69.07
2022-11-02T00:20:40.266Z,68.57
2022-11-02T00:23:10.873Z,68.68
2022-11-02T00:25:44.263Z,69.00
2022-11-02T00:28:12.676Z,68.84
2022-11-02T00:30:39.820Z,69.23
2022-11-02T00:33:07.301Z,68.88
2022-11-02T00:35:36.523Z,69.50
2022-11-02T00:38:04.398Z,69.65
2022-11-02T00:40:32.860Z,69.77
2022-11-02T00:43:00.118Z,70.32
2022-11-02T00:45:27.099Z,70.64
2022-11-02T00:47:54.695Z,70.63
2022-11-02T00:50:21.728Z,70.82
2022-11-02T00:52:49.053Z,71.45
2022-11-02T00:55:18.143Z,72.40
2022-11-02T00:57:45.558Z,71.80
2022-11-02T01:00:12.966Z,71.58
2022-11-02T01:02:41.259Z,71.37
2022-11-02T01:05:10.237Z,71.51
2022-11-02T01:07:37.802Z,72.04
2022-11-02T01:10:07.361Z,72.11
2022-11-02T01:12:37.702Z,72.14
2022-11-02T01:15:07.130Z,72.62
2022-11-02T01:17:34.673Z,73.43
2022-11-02T01:20:02.094Z,73.44
2022-11-02T01:22:29.289Z,73.08
2022-11-02T01:24:56.259Z,73.01
2022-11-02T01:27:23.886Z,73.27
2022-11-02T01:29:57.216Z,73.20
2022-11-02T01:32:40.634Z,73.43
2022-11-02T01:35:08.294Z,73.87
2022-11-02T01:37:35.513Z,74.76
2022-11-02T01:40:02.797Z,75.26
2022-11-02T01:42:29.966Z,75.68
2022-11-02T01:44:57.386Z,75.69
2022-11-02T01:47:40.645Z,74.94
2022-11-02T01:50:22.324Z,75.35
2022-11-02T01:52:49.410Z,75.46
2022-11-02T01:55:29.508Z,76.83
2022-11-02T01:58:10.281Z,77.70
2022-11-02T02:00:38.879Z,76.18
2022-11-02T02:03:09.456Z,76.53
2022-11-02T02:05:49.557Z,76.95
2022-11-02T02:08:20.164Z,76.36
2022-11-02T02:10:47.462Z,76.04
2022-11-02T02:13:15.961Z,76.93
2022-11-02T02:16:15.811Z,77.23
2022-11-02T02:18:50.495Z,76.99
2022-11-02T02:21:51.346Z,77.26
2022-11-02T02:25:11.505Z,78.69
2022-11-02T02:27:57.228Z,78.27
2022-11-02T02:30:24.615Z,77.96
2022-11-02T02:33:05.940Z,77.46
2022-11-02T02:35:59.391Z,76.71
2022-11-02T02:38:30.824Z,76.82
2022-11-02T02:41:09.354Z,77.98
2022-11-02T02:44:00.726Z,78.52
2022-11-02T02:46:40.546Z,78.27
2022-11-02T02:49:13.500Z,77.33
2022-11-02T02:51:42.045Z,76.76
2022-11-02T02:54:15.188Z,75.87
2022-11-02T02:56:50.022Z,75.45
2022-11-02T02:59:34.144Z,76.18
2022-11-02T03:02:01.303Z,76.42
2022-11-02T03:04:29.958Z,76.21
2022-11-02T03:07:01.496Z,76.42
2022-11-02T03:09:42.063Z,76.96
2022-11-02T03:12:16.762Z,77.08
2022-11-02T03:14:58.441Z,77.61
2022-11-02T03:17:48.577Z,78.33
2022-11-02T03:20:48.562Z,79.18
2022-11-02T03:23:33.660Z,79.42
2022-11-02T03:26:04.464Z,79.30
2022-11-02T03:28:54.873Z,79.56
2022-11-02T03:31:28.510Z,79.15
2022-11-02T03:34:15.786Z,79.36
2022-11-02T03:39:49.769Z,78.55
2022-11-02T03:42:19.376Z,77.29
2022-11-02T03:44:49.741Z,76.78
2022-11-02T03:47:20.877Z,77.43
2022-11-02T03:49:50.534Z,77.46
2022-11-02T03:52:23.792Z,78.08
2022-11-02T03:55:11.560Z,78.93
2022-11-02T03:57:46.329Z,79.60
2022-11-02T04:00:16.322Z,79.76
2022-11-02T04:02:48.567Z,79.54
2022-11-02T04:05:16.262Z,79.04
2022-11-02T04:08:07.513Z,78.88
2022-11-02T04:10:35.202Z,78.92
2022-11-02T04:13:21.070Z,78.94
2022-11-02T04:15:48.367Z,78.75
2022-11-02T04:18:34.495Z,79.05
2022-11-02T04:21:02.522Z,79.01
2022-11-02T04:23:48.631Z,79.73
2022-11-02T04:26:15.672Z,79.72
2022-11-02T04:28:42.964Z,79.27
2022-11-02T04:31:13.097Z,79.21
2022-11-02T04:33:41.497Z,79.47
2022-11-02T04:36:08.780Z,79.63
2022-11-02T04:38:42.095Z,79.26
2022-11-02T04:41:32.420Z,79.77
2022-11-02T04:44:00.527Z,79.58
2022-11-02T04:46:29.800Z,79.79
2022-11-02T04:48:57.380Z,79.95
2022-11-02T04:51:26.621Z,80.27
2022-11-02T04:53:55.354Z,80.26
2022-11-02T04:56:22.838Z,80.37
2022-11-02T04:59:01.816Z,80.60
2022-11-02T05:01:35.703Z,80.59
2022-11-02T05:04:04.720Z,80.72
2022-11-02T05:06:31.663Z,80.89
2022-11-02T05:08:58.900Z,81.21
2022-11-02T05:11:25.870Z,81.30
2022-11-02T05:16:46.314Z,81.29
2022-11-02T05:22:20.079Z,82.32
2022-11-02T05:24:47.292Z,82.43
2022-11-02T05:27:14.532Z,82.60
2022-11-02T05:29:42.063Z,82.81
2022-11-02T05:32:09.328Z,83.18
2022-11-02T05:34:38.198Z,83.20
2022-11-02T05:37:05.760Z,82.85
2022-11-02T05:39:33.068Z,82.79
2022-11-02T05:42:00.119Z,82.57
2022-11-02T05:44:27.369Z,82.82
2022-11-02T05:46:54.335Z,83.53
2022-11-02T05:49:21.926Z,83.31
2022-11-02T05:51:49.513Z,83.02
2022-11-02T05:54:18.105Z,82.78
2022-11-02T05:56:45.824Z,82.64
2022-11-02T06:04:44.669Z,82.45
2022-11-02T06:07:11.955Z,82.17
2022-11-02T06:09:39.382Z,81.78
2022-11-02T06:14:51.893Z,81.45
2022-11-02T06:17:20.009Z,81.47
2022-11-02T06:19:48.202Z,81.22
2022-11-02T06:22:15.256Z,81.38
2022-11-02T06:24:42.513Z,80.82
2022-11-02T06:27:09.541Z,80.90
2022-11-02T06:29:36.799Z,81.32
2022-11-02T06:32:03.912Z,81.93
2022-11-02T06:34:31.185Z,82.16
2022-11-02T06:40:25.631Z,83.24
2022-11-02T06:43:15.281Z,82.92
2022-11-02T06:45:43.815Z,83.74
2022-11-02T06:48:13.735Z,83.43
2022-11-02T06:50:43.728Z,83.14
2022-11-02T06:55:55.611Z,82.43
2022-11-02T06:58:24.216Z,82.11
2022-11-02T07:00:56.561Z,81.40
2022-11-02T07:03:47.670Z,81.41
2022-11-02T07:06:25.631Z,80.33
2022-11-02T07:08:53.811Z,80.08
2022-11-02T07:11:22.190Z,79.26
2022-11-02T07:13:51.895Z,78.72
2022-11-02T07:16:21.563Z,78.19
2022-11-02T07:21:33.401Z,77.81
2022-11-02T07:24:00.829Z,77.32
2022-11-02T07:26:34.448Z,76.93
2022-11-02T07:29:01.431Z,76.28
2022-11-02T07:31:28.712Z,76.29
2022-11-02T07:33:55.744Z,75.87
2022-11-02T07:36:23.197Z,75.36
2022-11-02T07:38:50.130Z,75.24
2022-11-02T07:41:17.344Z,74.88
2022-11-02T07:43:44.465Z,74.88
2022-11-02T07:46:12.652Z,74.24
2022-11-02T07:48:39.878Z,74.01
2022-11-02T07:53:55.593Z,73.34
2022-11-02T07:56:22.907Z,73.05
2022-11-02T07:58:49.842Z,72.16
2022-11-02T08:01:17.070Z,71.79
2022-11-02T08:03:44.146Z,71.83
2022-11-02T08:06:11.360Z,71.32
2022-11-02T08:08:38.296Z,71.24
2022-11-02T08:11:09.313Z,70.78
2022-11-02T08:13:42.196Z,70.50
2022-11-02T08:16:09.719Z,70.34
2022-11-02T08:21:40.795Z,69.58
2022-11-02T08:24:08.214Z,69.48
2022-11-02T08:26:35.221Z,68.65
2022-11-02T08:29:03.268Z,68.68
2022-11-02T08:31:30.248Z,67.98
2022-11-02T08:33:58.855Z,67.94
2022-11-02T08:36:25.871Z,67.34
2022-11-02T08:38:53.182Z,67.03
2022-11-02T08:41:21.533Z,67.23
2022-11-02T08:43:49.507Z,66.58
2022-11-02T08:46:47.717Z,66.48
2022-11-02T08:49:18.662Z,65.32
2022-11-02T08:51:45.975Z,64.59
2022-11-02T08:54:13.950Z,64.79
2022-11-02T08:56:41.131Z,64.47
2022-11-02T08:59:08.943Z,63.78
2022-11-02T09:01:35.957Z,63.19
2022-11-02T09:04:06.004Z,61.56
2022-11-02T09:06:32.999Z,58.65
2022-11-02T09:09:00.426Z,55.27
2022-11-02T09:11:27.574Z,52.17
2022-11-02T09:13:57.116Z,50.71
2022-11-02T09:16:24.393Z,48.08
2022-11-02T09:18:52.547Z,47.25
2022-11-02T09:21:19.487Z,44.17
2022-11-02T09:23:48.641Z,42.32
2022-11-02T09:26:16.085Z,41.39
2022-11-02T09:28:43.562Z,41.41
2022-11-02T09:31:11.772Z,41.73
2022-11-02T09:33:39.594Z,39.59
2022-11-02T09:36:07.298Z,40.19
2022-11-02T09:38:34.692Z,41.62
2022-11-02T09:41:22.000Z,42.94
2022-11-02T09:43:58.216Z,44.56
2022-11-02T09:46:32.705Z,47.60
2022-11-02T09:49:00.260Z,48.66
2022-11-02T09:51:35.239Z,49.90
2022-11-02T09:54:17.153Z,50.46
2022-11-02T09:56:46.362Z,51.55
2022-11-02T09:59:24.634Z,52.04
2022-11-02T10:02:05.779Z,52.33
2022-11-02T10:05:10.741Z,52.85
2022-11-02T10:07:43.686Z,52.37
2022-11-02T10:10:10.979Z,52.17
2022-11-02T10:12:58.084Z,52.56
2022-11-02T10:15:37.210Z,52.82
2022-11-02T10:18:05.708Z,52.49
2022-11-02T10:20:42.582Z,52.49
2022-11-02T10:23:18.587Z,53.32
2022-11-02T10:25:48.489Z,53.10
2022-11-02T10:28:27.421Z,53.27
2022-11-02T10:30:55.680Z,53.74
2022-11-02T10:33:26.984Z,53.51
2022-11-02T10:36:28.186Z,53.33
2022-11-02T10:38:55.019Z,53.24
2022-11-02T10:41:39.147Z,53.42
2022-11-02T10:44:22.303Z,53.02
2022-11-02T10:47:05.615Z,52.13
2022-11-02T10:50:12.562Z,51.88
2022-11-02T10:52:43.646Z,52.12
2022-11-02T10:55:41.433Z,52.92
2022-11-02T10:58:15.957Z,53.33
2022-11-02T11:00:43.371Z,53.15
2022-11-02T11:03:13.409Z,52.50
2022-11-02T11:06:02.824Z,52.44
2022-11-02T11:08:43.022Z,52.51
2022-11-02T11:11:21.518Z,53.18
2022-11-02T11:16:52.410Z,53.76
2022-11-02T11:22:22.553Z,54.92
2022-11-02T11:24:49.967Z,55.03
2022-11-02T11:27:23.997Z,55.27
2022-11-02T11:29:59.100Z,55.79
2022-11-02T11:32:30.562Z,55.35
2022-11-02T11:35:14.868Z,54.64
2022-11-02T11:37:54.813Z,54.59
2022-11-02T11:40:23.409Z,54.20
2022-11-02T11:42:56.363Z,54.11
2022-11-02T11:45:27.962Z,54.20
2022-11-02T11:48:32.567Z,54.84
2022-11-02T11:51:02.609Z,55.21
2022-11-02T11:53:30.008Z,55.44
2022-11-02T11:55:59.950Z,55.53
2022-11-02T11:58:30.088Z,56.16
2022-11-02T12:01:13.023Z,56.74
2022-11-02T12:03:53.912Z,56.79
2022-11-02T12:06:59.814Z,57.35
2022-11-02T12:09:45.781Z,57.79
2022-11-02T12:12:34.575Z,58.16
2022-11-02T12:15:23.110Z,58.11
2022-11-02T12:18:06.823Z,58.57
2022-11-02T12:21:22.292Z,58.26
2022-11-02T12:24:18.973Z,57.94
2022-11-02T12:27:41.852Z,57.70
2022-11-02T12:30:11.304Z,57.03
2022-11-02T12:32:53.539Z,56.72
2022-11-02T12:35:55.991Z,57.10
2022-11-02T12:39:04.493Z,57.28
2022-11-02T12:41:51.272Z,57.52
2022-11-02T12:47:59.774Z,58.56
2022-11-02T12:58:06.981Z,59.30
2022-11-02T13:04:54.756Z,60.17
2022-11-02T13:08:27.250Z,60.63
2022-11-02T13:11:46.183Z,60.56
2022-11-02T13:15:16.270Z,61.20
2022-11-02T13:18:53.077Z,61.07
2022-11-02T13:22:15.879Z,61.20
2022-11-02T13:25:03.660Z,61.20
2022-11-02T13:28:20.307Z,61.59
2022-11-02T13:31:00.737Z,61.30
2022-11-02T13:34:12.247Z,61.63
2022-11-02T13:36:46.795Z,62.05
2022-11-02T13:39:30.309Z,62.29
2022-11-02T13:42:33.760Z,62.65
2022-11-02T13:45:30.797Z,62.88
2022-11-02T13:48:23.073Z,62.80
2022-11-02T13:50:55.646Z,62.60
2022-11-02T13:53:48.460Z,62.72
2022-11-02T13:56:24.447Z,62.76
2022-11-02T13:59:20.931Z,62.60
2022-11-02T14:01:53.846Z,62.89
2022-11-02T14:04:22.666Z,62.93
2022-11-02T14:06:53.589Z,63.04
2022-11-02T14:09:42.456Z,63.54
2022-11-02T14:12:21.983Z,63.58
2022-11-02T14:15:15.532Z,64.05
2022-11-02T14:17:55.311Z,64.34
2022-11-02T14:20:47.681Z,64.22
2022-11-02T14:23:14.952Z,64.44
2022-11-02T14:28:44.456Z,65.12
2022-11-02T14:31:18.294Z,64.95
2022-11-02T14:34:12.027Z,65.13
2022-11-02T14:36:47.513Z,65.54
2022-11-02T14:39:35.211Z,65.67
2022-11-02T14:42:36.870Z,65.13
2022-11-02T14:45:48.882Z,65.64
2022-11-02T14:48:16.969Z,65.50
2022-11-02T14:51:06.955Z,65.90
2022-11-02T14:53:36.232Z,65.78
2022-11-02T14:56:03.720Z,66.04
2022-11-02T14:58:48.497Z,66.17
2022-11-02T15:01:16.986Z,66.38
2022-11-02T15:03:45.234Z,66.19
2022-11-02T15:06:12.843Z,66.39
2022-11-02T15:09:08.104Z,66.31
2022-11-02T15:11:57.031Z,65.94
2022-11-02T15:14:38.384Z,66.41
2022-11-02T15:17:22.207Z,66.29
2022-11-02T15:20:16.535Z,66.25
2022-11-02T15:23:31.594Z,66.48
2022-11-02T15:25:59.551Z,66.56
2022-11-02T15:28:33.902Z,66.75
2022-11-02T15:31:23.155Z,66.65
2022-11-02T15:33:59.071Z,66.85
2022-11-02T15:36:36.724Z,66.71
2022-11-02T15:39:08.823Z,67.20
2022-11-02T15:41:42.035Z,67.15
2022-11-02T15:44:33.161Z,67.24
2022-11-02T15:47:14.699Z,67.49
2022-11-02T15:50:16.787Z,67.27
2022-11-02T15:53:22.438Z,67.59
2022-11-02T15:56:09.920Z,67.09
2022-11-02T15:58:45.900Z,67.65
2022-11-02T16:01:26.935Z,67.69
2022-11-02T16:06:44.456Z,67.70
2022-11-02T16:09:29.761Z,67.51
2022-11-02T16:12:17.118Z,67.95
2022-11-02T16:14:44.908Z,67.79
2022-11-02T16:17:30.495Z,68.35
2022-11-02T16:23:29.334Z,67.79
2022-11-02T16:26:00.655Z,67.79
2022-11-02T16:28:30.414Z,68.14
2022-11-02T16:30:58.374Z,67.92
2022-11-02T16:33:27.040Z,67.98
2022-11-02T16:35:55.157Z,68.11
2022-11-02T16:38:23.306Z,67.93
2022-11-02T16:43:37.863Z,68.20
2022-11-02T16:46:07.190Z,68.05
2022-11-02T16:48:34.330Z,68.25
2022-11-02T16:51:26.933Z,68.18
2022-11-02T16:53:55.347Z,68.11
2022-11-02T16:56:35.822Z,68.60
2022-11-02T16:59:06.904Z,68.64
2022-11-02T17:02:02.269Z,68.71
2022-11-02T17:04:32.668Z,68.87
2022-11-02T17:07:28.464Z,68.99
2022-11-02T17:09:57.662Z,69.09
2022-11-02T17:12:37.263Z,69.23
2022-11-02T17:15:16.361Z,69.17
2022-11-02T17:17:44.112Z,69.70
2022-11-02T17:20:11.743Z,69.63
2022-11-02T17:22:50.871Z,69.79
2022-11-02T17:25:26.915Z,69.86
2022-11-02T17:27:56.601Z,69.97
2022-11-02T17:30:43.068Z,70.23
2022-11-02T17:33:25.153Z,69.86
2022-11-02T17:36:00.076Z,69.72
2022-11-02T17:38:38.174Z,70.04
2022-11-02T17:41:26.210Z,70.00
2022-11-02T17:43:58.672Z,69.89
2022-11-02T17:46:25.737Z,70.14
2022-11-02T17:48:55.710Z,69.68
2022-11-02T17:51:24.736Z,69.98
2022-11-02T17:53:52.868Z,69.77
2022-11-02T17:59:03.610Z,69.51
2022-11-02T18:01:30.919Z,69.51
2022-11-02T18:03:58.534Z,69.55
2022-11-02T18:06:25.665Z,69.66
2022-11-02T18:09:11.501Z,69.73
2022-11-02T18:11:38.547Z,69.46
2022-11-02T18:14:06.053Z,69.78
2022-11-02T18:16:33.073Z,69.73
2022-11-02T18:19:00.646Z,69.39
2022-11-02T18:21:27.955Z,70.11
2022-11-02T18:23:55.806Z,70.17
2022-11-02T18:26:24.709Z,70.03
2022-11-02T18:28:52.058Z,70.28
2022-11-02T18:31:19.306Z,70.83
2022-11-02T18:33:47.661Z,70.78
2022-11-02T18:36:14.826Z,70.68
2022-11-02T18:38:44.607Z,70.41
2022-11-02T18:41:30.738Z,70.77
2022-11-02T18:44:04.938Z,70.86
2022-11-02T18:46:34.346Z,70.89
2022-11-02T18:49:16.191Z,71.25
2022-11-02T18:55:02.769Z,71.32
2022-11-02T18:57:33.271Z,71.52
2022-11-02T19:00:02.728Z,71.19
2022-11-02T19:02:30.805Z,71.27
2022-11-02T19:04:57.951Z,71.58
2022-11-02T19:07:43.971Z,71.52
2022-11-02T19:10:11.069Z,71.73
2022-11-02T19:12:38.717Z,71.83
2022-11-02T19:15:06.498Z,72.22
2022-11-02T19:17:48.430Z,72.18
2022-11-02T19:20:15.416Z,72.11
2022-11-02T19:25:24.798Z,72.14
2022-11-02T19:27:52.151Z,71.79
2022-11-02T19:30:23.708Z,72.30
2022-11-02T19:32:51.953Z,72.31
2022-11-02T19:35:19.085Z,72.43
2022-11-02T19:37:47.765Z,72.44
2022-11-02T19:40:15.271Z,72.58
2022-11-02T19:42:44.106Z,72.64
2022-11-02T19:45:17.489Z,72.77
2022-11-02T19:47:48.612Z,73.22
2022-11-02T19:50:20.929Z,72.89
2022-11-02T19:56:29.581Z,73.29
2022-11-02T19:59:06.405Z,72.94
2022-11-02T20:01:40.021Z,73.09
2022-11-02T20:04:09.039Z,73.23
2022-11-02T20:06:48.064Z,73.30
2022-11-02T20:09:20.502Z,73.02
2022-11-02T20:11:48.373Z,73.14
2022-11-02T20:14:17.733Z,73.46
2022-11-02T20:16:47.340Z,73.16
2022-11-02T20:19:21.361Z,72.88
2022-11-02T20:21:48.725Z,73.04
2022-11-02T20:24:16.598Z,73.28
2022-11-02T20:26:43.760Z,73.29
2022-11-02T20:29:15.238Z,73.51
2022-11-02T20:31:45.724Z,73.75
2022-11-02T20:34:13.754Z,73.62
2022-11-02T20:36:41.450Z,73.87
2022-11-02T20:39:11.029Z,73.72
2022-11-02T20:41:38.054Z,73.78
2022-11-02T20:44:05.601Z,74.12
2022-11-02T20:46:39.118Z,73.73
2022-11-02T20:49:21.088Z,73.86
2022-11-02T20:51:53.136Z,73.71
2022-11-02T20:54:25.127Z,73.70
2022-11-02T20:56:52.127Z,73.68
2022-11-02T20:59:19.715Z,73.58
2022-11-02T21:01:47.446Z,73.87
2022-11-02T21:04:32.199Z,74.03
2022-11-02T21:07:00.767Z,74.18
2022-11-02T21:09:27.913Z,74.18
2022-11-02T21:12:13.815Z,73.90
2022-11-02T21:14:40.833Z,73.99
2022-11-02T21:17:09.988Z,73.72
2022-11-02T21:19:37.540Z,73.73
2022-11-02T21:22:07.591Z,74.08
2022-11-02T21:24:34.599Z,73.66
2022-11-02T21:27:02.359Z,73.64
2022-11-02T21:29:32.358Z,74.30
2022-11-02T21:32:03.496Z,73.74
2022-11-02T21:34:33.149Z,74.08
2022-11-02T21:37:06.615Z,74.32
2022-11-02T21:39:36.165Z,74.13
2022-11-02T21:42:04.118Z,74.47
2022-11-02T21:44:33.090Z,74.20
2022-11-02T21:47:01.895Z,74.14
2022-11-02T21:49:31.286Z,74.11
2022-11-02T21:51:58.666Z,74.03
2022-11-02T21:54:25.692Z,74.09
2022-11-02T21:56:53.045Z,74.32
2022-11-02T21:59:20.144Z,74.20
2022-11-02T22:01:49.517Z,74.30
2022-11-02T22:04:31.686Z,74.90
2022-11-02T22:07:00.600Z,75.05
2022-11-02T22:09:30.661Z,74.75
2022-11-02T22:12:21.491Z,75.30
2022-11-02T22:14:48.598Z,74.86
2022-11-02T22:17:22.066Z,75.14
2022-11-02T22:20:04.314Z,75.01
2022-11-02T22:22:31.666Z,75.34
2022-11-02T22:24:58.979Z,74.94
2022-11-02T22:27:29.130Z,75.28
2022-11-02T22:29:56.231Z,75.26
2022-11-02T22:32:23.762Z,75.30
2022-11-02T22:34:51.134Z,75.28
2022-11-02T22:37:39.626Z,75.50
2022-11-02T22:40:06.932Z,75.32
2022-11-02T22:42:38.188Z,75.27
2022-11-02T22:45:09.193Z,75.29
2022-11-02T22:47:36.717Z,75.49
2022-11-02T22:50:05.334Z,75.34
2022-11-02T22:52:33.309Z,75.62
2022-11-02T22:55:00.416Z,75.76
2022-11-02T22:57:29.269Z,75.63
2022-11-02T22:59:56.845Z,75.50
2022-11-02T23:02:24.223Z,75.64
2022-11-02T23:04:51.327Z,75.60
2022-11-02T23:07:18.613Z,75.58
2022-11-02T23:09:46.090Z,75.72
2022-11-02T23:12:14.460Z,75.58
2022-11-02T23:14:41.548Z,75.78
2022-11-02T23:17:08.662Z,75.38
2022-11-02T23:19:38.667Z,75.64
2022-11-02T23:22:26.583Z,75.54
2022-11-02T23:25:14.403Z,76.04
2022-11-02T23:28:06.028Z,75.62
2022-11-02T23:30:57.570Z,75.99
2022-11-02T23:33:29.516Z,75.82
2022-11-02T23:36:13.122Z,76.36
2022-11-02T23:39:03.501Z,76.72
2022-11-02T23:41:32.899Z,76.78
2022-11-02T23:44:12.636Z,76.46
2022-11-02T23:46:44.347Z,76.82
2022-11-02T23:49:12.444Z,76.58
2022-11-02T23:52:01.368Z,77.10
2022-11-02T23:54:47.115Z,76.58
2022-11-02T23:57:14.574Z,76.93
2022-11-02T23:59:41.531Z,76.56
